sensor_id;sensor_type;location;lat;lon;timestamp;P1;durP1;ratioP1;P2;durP2;ratioP2
763;SDS011;5393;48.728;9.140;2022-09-03T00:01:32;1.70;;;1.40;;
763;SDS011;5393;48.728;9.140;2022-09-03T00:04:33;2.97;;;1.53;;
763;SDS011;5393;48.728;9.140;2022-09-03T00:07:22;2.47;;;2.13;;
763;SDS011;5393;48.728;9.140;2022-09-03T00:10:28;2.27;;;1.50;;
763;SDS011;5393;48.728;9.140;2022-09-03T00:13:26;2.60;;;1.67;;
763;SDS011;5393;48.728;9.140;2022-09-03T00:16:13;3.13;;;1.60;;
763;SDS011;5393;48.728;9.140;2022-09-03T00:18:59;2.23;;;1.53;;
763;SDS011;5393;48.728;9.140;2022-09-03T00:21:46;4.33;;;1.90;;
763;SDS011;5393;48.728;9.140;2022-09-03T00:24:33;2.23;;;1.70;;
763;SDS011;5393;48.728;9.140;2022-09-03T00:27:21;2.30;;;1.90;;
763;SDS011;5393;48.728;9.140;2022-09-03T00:30:11;2.60;;;1.43;;
763;SDS011;5393;48.728;9.140;2022-09-03T00:33:04;2.23;;;1.50;;
763;SDS011;5393;48.728;9.140;2022-09-03T00:36:02;2.40;;;2.10;;
763;SDS011;5393;48.728;9.140;2022-09-03T00:38:48;3.93;;;1.70;;
763;SDS011;5393;48.728;9.140;2022-09-03T00:41:43;1.90;;;1.33;;
763;SDS011;5393;48.728;9.140;2022-09-03T00:50:34;4.73;;;1.90;;
763;SDS011;5393;48.728;9.140;2022-09-03T00:53:27;4.43;;;2.00;;
763;SDS011;5393;48.728;9.140;2022-09-03T01:07:35;2.07;;;1.30;;
763;SDS011;5393;48.728;9.140;2022-09-03T01:13:15;3.53;;;1.70;;
763;SDS011;5393;48.728;9.140;2022-09-03T01:16:15;2.87;;;1.50;;
763;SDS011;5393;48.728;9.140;2022-09-03T01:19:05;2.10;;;1.57;;
763;SDS011;5393;48.728;9.140;2022-09-03T01:33:43;4.10;;;1.60;;
763;SDS011;5393;48.728;9.140;2022-09-03T01:36:33;1.70;;;1.13;;
763;SDS011;5393;48.728;9.140;2022-09-03T02:02:48;3.90;;;1.50;;
763;SDS011;5393;48.728;9.140;2022-09-03T02:05:33;2.07;;;1.50;;
763;SDS011;5393;48.728;9.140;2022-09-03T02:08:18;2.00;;;1.30;;
763;SDS011;5393;48.728;9.140;2022-09-03T02:11:04;2.23;;;1.20;;
763;SDS011;5393;48.728;9.140;2022-09-03T02:13:50;2.27;;;1.27;;
763;SDS011;5393;48.728;9.140;2022-09-03T02:16:36;1.77;;;1.63;;
763;SDS011;5393;48.728;9.140;2022-09-03T02:19:21;1.97;;;1.30;;
763;SDS011;5393;48.728;9.140;2022-09-03T02:22:06;2.60;;;1.93;;
763;SDS011;5393;48.728;9.140;2022-09-03T02:24:51;2.17;;;1.77;;
763;SDS011;5393;48.728;9.140;2022-09-03T02:27:39;2.57;;;1.70;;
763;SDS011;5393;48.728;9.140;2022-09-03T02:30:24;1.83;;;1.63;;
763;SDS011;5393;48.728;9.140;2022-09-03T02:33:09;2.53;;;1.83;;
763;SDS011;5393;48.728;9.140;2022-09-03T02:35:54;2.30;;;1.70;;
763;SDS011;5393;48.728;9.140;2022-09-03T02:38:40;2.00;;;1.70;;
763;SDS011;5393;48.728;9.140;2022-09-03T02:41:25;1.70;;;1.50;;
763;SDS011;5393;48.728;9.140;2022-09-03T02:47:01;3.10;;;1.40;;
763;SDS011;5393;48.728;9.140;2022-09-03T02:49:47;2.17;;;1.97;;
763;SDS011;5393;48.728;9.140;2022-09-03T02:52:31;1.80;;;1.60;;
763;SDS011;5393;48.728;9.140;2022-09-03T02:55:16;3.40;;;1.77;;
763;SDS011;5393;48.728;9.140;2022-09-03T02:58:01;2.00;;;1.60;;
763;SDS011;5393;48.728;9.140;2022-09-03T03:00:48;1.73;;;1.33;;
763;SDS011;5393;48.728;9.140;2022-09-03T03:03:33;2.93;;;1.77;;
763;SDS011;5393;48.728;9.140;2022-09-03T03:06:17;2.50;;;1.80;;
763;SDS011;5393;48.728;9.140;2022-09-03T03:09:03;2.80;;;1.40;;
763;SDS011;5393;48.728;9.140;2022-09-03T03:11:48;2.67;;;1.90;;
763;SDS011;5393;48.728;9.140;2022-09-03T03:14:33;2.67;;;1.60;;
763;SDS011;5393;48.728;9.140;2022-09-03T03:17:18;3.50;;;1.70;;
763;SDS011;5393;48.728;9.140;2022-09-03T03:20:02;1.93;;;1.53;;
763;SDS011;5393;48.728;9.140;2022-09-03T03:22:47;3.23;;;1.80;;
763;SDS011;5393;48.728;9.140;2022-09-03T03:25:33;2.03;;;1.70;;
763;SDS011;5393;48.728;9.140;2022-09-03T03:28:17;2.50;;;1.67;;
763;SDS011;5393;48.728;9.140;2022-09-03T03:31:07;1.83;;;1.50;;
763;SDS011;5393;48.728;9.140;2022-09-03T03:33:56;2.30;;;1.80;;
763;SDS011;5393;48.728;9.140;2022-09-03T03:36:41;2.73;;;1.70;;
763;SDS011;5393;48.728;9.140;2022-09-03T03:39:26;2.70;;;1.80;;
763;SDS011;5393;48.728;9.140;2022-09-03T03:42:10;3.20;;;2.00;;
763;SDS011;5393;48.728;9.140;2022-09-03T03:44:56;3.43;;;1.63;;
763;SDS011;5393;48.728;9.140;2022-09-03T03:47:41;3.13;;;1.77;;
763;SDS011;5393;48.728;9.140;2022-09-03T03:50:26;3.57;;;1.70;;
763;SDS011;5393;48.728;9.140;2022-09-03T03:53:10;3.17;;;1.63;;
763;SDS011;5393;48.728;9.140;2022-09-03T03:55:55;3.50;;;1.93;;
763;SDS011;5393;48.728;9.140;2022-09-03T03:58:41;1.70;;;1.60;;
763;SDS011;5393;48.728;9.140;2022-09-03T04:01:27;2.13;;;1.90;;
763;SDS011;5393;48.728;9.140;2022-09-03T04:04:11;3.67;;;2.13;;
763;SDS011;5393;48.728;9.140;2022-09-03T04:06:57;3.00;;;2.07;;
763;SDS011;5393;48.728;9.140;2022-09-03T04:09:41;2.87;;;1.80;;
763;SDS011;5393;48.728;9.140;2022-09-03T04:12:26;2.60;;;1.87;;
763;SDS011;5393;48.728;9.140;2022-09-03T04:15:11;2.20;;;1.90;;
763;SDS011;5393;48.728;9.140;2022-09-03T04:17:55;2.90;;;2.20;;
763;SDS011;5393;48.728;9.140;2022-09-03T04:20:40;3.73;;;2.23;;
763;SDS011;5393;48.728;9.140;2022-09-03T04:23:24;5.20;;;2.70;;
763;SDS011;5393;48.728;9.140;2022-09-03T04:26:10;2.50;;;1.90;;
763;SDS011;5393;48.728;9.140;2022-09-03T04:28:56;2.33;;;2.13;;
763;SDS011;5393;48.728;9.140;2022-09-03T04:31:41;3.90;;;2.77;;
763;SDS011;5393;48.728;9.140;2022-09-03T04:34:45;4.67;;;2.10;;
763;SDS011;5393;48.728;9.140;2022-09-03T04:37:31;4.33;;;2.50;;
763;SDS011;5393;48.728;9.140;2022-09-03T04:40:15;2.80;;;2.20;;
763;SDS011;5393;48.728;9.140;2022-09-03T04:43:01;2.57;;;2.10;;
763;SDS011;5393;48.728;9.140;2022-09-03T04:45:45;2.53;;;2.20;;
763;SDS011;5393;48.728;9.140;2022-09-03T04:48:30;3.20;;;2.37;;
763;SDS011;5393;48.728;9.140;2022-09-03T04:51:16;3.27;;;2.40;;
763;SDS011;5393;48.728;9.140;2022-09-03T04:54:01;3.50;;;2.37;;
763;SDS011;5393;48.728;9.140;2022-09-03T04:56:46;3.17;;;2.20;;
763;SDS011;5393;48.728;9.140;2022-09-03T04:59:31;2.80;;;2.30;;
763;SDS011;5393;48.728;9.140;2022-09-03T05:02:15;3.47;;;2.20;;
763;SDS011;5393;48.728;9.140;2022-09-03T05:05:00;3.27;;;1.80;;
763;SDS011;5393;48.728;9.140;2022-09-03T05:07:45;3.57;;;2.20;;
763;SDS011;5393;48.728;9.140;2022-09-03T05:10:30;3.37;;;2.13;;
763;SDS011;5393;48.728;9.140;2022-09-03T05:13:15;3.83;;;2.33;;
763;SDS011;5393;48.728;9.140;2022-09-03T05:16:01;3.07;;;2.10;;
763;SDS011;5393;48.728;9.140;2022-09-03T05:18:46;3.50;;;1.73;;
763;SDS011;5393;48.728;9.140;2022-09-03T05:21:31;3.53;;;2.60;;
763;SDS011;5393;48.728;9.140;2022-09-03T05:24:15;2.63;;;1.70;;
763;SDS011;5393;48.728;9.140;2022-09-03T05:27:00;3.20;;;2.10;;
763;SDS011;5393;48.728;9.140;2022-09-03T05:29:45;4.30;;;2.27;;
763;SDS011;5393;48.728;9.140;2022-09-03T05:32:30;5.40;;;2.10;;
763;SDS011;5393;48.728;9.140;2022-09-03T05:35:15;4.10;;;2.07;;
763;SDS011;5393;48.728;9.140;2022-09-03T05:37:59;3.00;;;2.27;;
763;SDS011;5393;48.728;9.140;2022-09-03T05:40:45;2.83;;;1.90;;
763;SDS011;5393;48.728;9.140;2022-09-03T05:43:29;3.33;;;1.87;;
763;SDS011;5393;48.728;9.140;2022-09-03T05:46:14;4.03;;;2.00;;
763;SDS011;5393;48.728;9.140;2022-09-03T05:49:01;2.77;;;2.23;;
763;SDS011;5393;48.728;9.140;2022-09-03T05:51:46;2.83;;;2.13;;
763;SDS011;5393;48.728;9.140;2022-09-03T05:54:31;2.70;;;2.30;;
763;SDS011;5393;48.728;9.140;2022-09-03T05:57:15;4.93;;;2.20;;
763;SDS011;5393;48.728;9.140;2022-09-03T05:59:59;4.20;;;2.20;;
763;SDS011;5393;48.728;9.140;2022-09-03T06:02:51;2.80;;;2.10;;
763;SDS011;5393;48.728;9.140;2022-09-03T06:05:35;3.00;;;2.27;;
763;SDS011;5393;48.728;9.140;2022-09-03T06:08:20;3.87;;;2.30;;
763;SDS011;5393;48.728;9.140;2022-09-03T06:11:05;3.30;;;2.37;;
763;SDS011;5393;48.728;9.140;2022-09-03T06:13:50;3.50;;;2.30;;
763;SDS011;5393;48.728;9.140;2022-09-03T06:16:54;4.80;;;2.60;;
763;SDS011;5393;48.728;9.140;2022-09-03T06:19:39;6.67;;;2.70;;
763;SDS011;5393;48.728;9.140;2022-09-03T06:22:24;4.63;;;2.73;;
763;SDS011;5393;48.728;9.140;2022-09-03T06:25:10;3.33;;;2.20;;
763;SDS011;5393;48.728;9.140;2022-09-03T06:27:56;5.63;;;2.53;;
763;SDS011;5393;48.728;9.140;2022-09-03T06:30:41;5.33;;;3.30;;
763;SDS011;5393;48.728;9.140;2022-09-03T06:33:26;3.00;;;2.23;;
763;SDS011;5393;48.728;9.140;2022-09-03T06:36:14;5.30;;;2.30;;
763;SDS011;5393;48.728;9.140;2022-09-03T06:38:59;4.73;;;2.83;;
763;SDS011;5393;48.728;9.140;2022-09-03T06:41:44;3.10;;;2.47;;
763;SDS011;5393;48.728;9.140;2022-09-03T06:44:31;4.50;;;2.53;;
763;SDS011;5393;48.728;9.140;2022-09-03T06:47:15;2.70;;;2.20;;
763;SDS011;5393;48.728;9.140;2022-09-03T06:50:00;2.90;;;2.33;;
763;SDS011;5393;48.728;9.140;2022-09-03T06:52:52;2.87;;;2.27;;
763;SDS011;5393;48.728;9.140;2022-09-03T06:55:39;4.00;;;2.43;;
763;SDS011;5393;48.728;9.140;2022-09-03T06:58:29;4.90;;;2.40;;
763;SDS011;5393;48.728;9.140;2022-09-03T07:01:18;3.73;;;2.63;;
763;SDS011;5393;48.728;9.140;2022-09-03T07:04:03;3.27;;;2.70;;
763;SDS011;5393;48.728;9.140;2022-09-03T07:06:48;3.07;;;2.77;;
763;SDS011;5393;48.728;9.140;2022-09-03T07:09:33;3.27;;;2.77;;
763;SDS011;5393;48.728;9.140;2022-09-03T07:12:20;5.20;;;4.70;;
763;SDS011;5393;48.728;9.140;2022-09-03T07:15:05;4.63;;;4.10;;
763;SDS011;5393;48.728;9.140;2022-09-03T07:17:50;3.77;;;2.70;;
763;SDS011;5393;48.728;9.140;2022-09-03T07:20:35;3.60;;;2.83;;
763;SDS011;5393;48.728;9.140;2022-09-03T07:23:19;3.20;;;2.70;;
763;SDS011;5393;48.728;9.140;2022-09-03T07:26:05;4.73;;;2.70;;
763;SDS011;5393;48.728;9.140;2022-09-03T07:28:50;3.20;;;2.70;;
763;SDS011;5393;48.728;9.140;2022-09-03T07:31:37;3.63;;;2.70;;
763;SDS011;5393;48.728;9.140;2022-09-03T07:34:22;3.13;;;2.83;;
763;SDS011;5393;48.728;9.140;2022-09-03T07:37:08;2.70;;;2.47;;
763;SDS011;5393;48.728;9.140;2022-09-03T07:39:53;3.87;;;3.47;;
763;SDS011;5393;48.728;9.140;2022-09-03T07:42:38;3.37;;;3.00;;
763;SDS011;5393;48.728;9.140;2022-09-03T07:45:23;3.33;;;3.03;;
763;SDS011;5393;48.728;9.140;2022-09-03T07:48:07;3.80;;;3.20;;
763;SDS011;5393;48.728;9.140;2022-09-03T07:50:56;3.50;;;2.73;;
763;SDS011;5393;48.728;9.140;2022-09-03T07:53:43;3.00;;;2.70;;
763;SDS011;5393;48.728;9.140;2022-09-03T07:56:28;4.43;;;2.90;;
763;SDS011;5393;48.728;9.140;2022-09-03T07:59:15;3.70;;;2.73;;
763;SDS011;5393;48.728;9.140;2022-09-03T08:02:00;3.33;;;3.03;;
763;SDS011;5393;48.728;9.140;2022-09-03T08:04:45;3.13;;;2.73;;
763;SDS011;5393;48.728;9.140;2022-09-03T08:07:30;3.43;;;2.20;;
763;SDS011;5393;48.728;9.140;2022-09-03T08:10:14;2.90;;;2.13;;
763;SDS011;5393;48.728;9.140;2022-09-03T08:12:59;4.27;;;2.57;;
763;SDS011;5393;48.728;9.140;2022-09-03T08:15:52;3.30;;;2.30;;
763;SDS011;5393;48.728;9.140;2022-09-03T08:18:37;3.03;;;2.40;;
763;SDS011;5393;48.728;9.140;2022-09-03T08:21:22;3.03;;;2.73;;
763;SDS011;5393;48.728;9.140;2022-09-03T08:24:07;4.67;;;2.70;;
763;SDS011;5393;48.728;9.140;2022-09-03T08:26:51;3.37;;;2.40;;
763;SDS011;5393;48.728;9.140;2022-09-03T08:29:36;4.63;;;2.90;;
763;SDS011;5393;48.728;9.140;2022-09-03T08:32:21;3.40;;;3.10;;
763;SDS011;5393;48.728;9.140;2022-09-03T08:35:05;5.77;;;2.80;;
763;SDS011;5393;48.728;9.140;2022-09-03T08:37:51;3.10;;;2.83;;
763;SDS011;5393;48.728;9.140;2022-09-03T08:40:36;3.37;;;2.70;;
763;SDS011;5393;48.728;9.140;2022-09-03T08:43:21;4.30;;;2.87;;
763;SDS011;5393;48.728;9.140;2022-09-03T08:46:05;3.50;;;2.90;;
763;SDS011;5393;48.728;9.140;2022-09-03T08:48:51;3.97;;;2.87;;
763;SDS011;5393;48.728;9.140;2022-09-03T08:51:37;4.53;;;2.97;;
763;SDS011;5393;48.728;9.140;2022-09-03T08:54:23;3.90;;;2.47;;
763;SDS011;5393;48.728;9.140;2022-09-03T08:57:09;4.53;;;2.80;;
763;SDS011;5393;48.728;9.140;2022-09-03T08:59:54;2.90;;;2.60;;
763;SDS011;5393;48.728;9.140;2022-09-03T09:05:37;4.30;;;2.50;;
763;SDS011;5393;48.728;9.140;2022-09-03T09:08:28;2.73;;;2.53;;
763;SDS011;5393;48.728;9.140;2022-09-03T09:11:27;3.13;;;2.50;;
763;SDS011;5393;48.728;9.140;2022-09-03T09:22:41;3.00;;;2.70;;
763;SDS011;5393;48.728;9.140;2022-09-03T09:25:27;3.37;;;2.73;;
763;SDS011;5393;48.728;9.140;2022-09-03T09:31:03;3.17;;;2.60;;
763;SDS011;5393;48.728;9.140;2022-09-03T09:33:50;3.80;;;2.80;;
763;SDS011;5393;48.728;9.140;2022-09-03T09:36:51;3.20;;;2.50;;
763;SDS011;5393;48.728;9.140;2022-09-03T09:39:36;3.10;;;2.80;;
763;SDS011;5393;48.728;9.140;2022-09-03T09:42:21;3.00;;;2.40;;
763;SDS011;5393;48.728;9.140;2022-09-03T09:45:10;3.37;;;3.03;;
763;SDS011;5393;48.728;9.140;2022-09-03T09:47:54;3.10;;;2.80;;
763;SDS011;5393;48.728;9.140;2022-09-03T09:50:39;3.43;;;3.13;;
763;SDS011;5393;48.728;9.140;2022-09-03T09:53:24;5.00;;;3.40;;
763;SDS011;5393;48.728;9.140;2022-09-03T09:56:23;3.10;;;2.77;;
763;SDS011;5393;48.728;9.140;2022-09-03T09:59:08;3.23;;;2.50;;
763;SDS011;5393;48.728;9.140;2022-09-03T10:02:02;3.63;;;2.83;;
763;SDS011;5393;48.728;9.140;2022-09-03T10:04:47;2.73;;;2.53;;
763;SDS011;5393;48.728;9.140;2022-09-03T10:07:32;4.20;;;2.90;;
763;SDS011;5393;48.728;9.140;2022-09-03T10:10:17;3.33;;;2.80;;
763;SDS011;5393;48.728;9.140;2022-09-03T10:13:11;3.20;;;2.90;;
763;SDS011;5393;48.728;9.140;2022-09-03T10:15:57;4.10;;;2.60;;
763;SDS011;5393;48.728;9.140;2022-09-03T10:18:45;3.00;;;2.57;;
763;SDS011;5393;48.728;9.140;2022-09-03T10:24:35;3.17;;;2.87;;
763;SDS011;5393;48.728;9.140;2022-09-03T10:27:22;3.57;;;3.20;;
763;SDS011;5393;48.728;9.140;2022-09-03T10:30:08;3.43;;;3.13;;
763;SDS011;5393;48.728;9.140;2022-09-03T10:36:42;3.73;;;3.23;;
763;SDS011;5393;48.728;9.140;2022-09-03T10:39:09;3.40;;;3.10;;
763;SDS011;5393;48.728;9.140;2022-09-03T10:44:56;4.73;;;3.43;;
763;SDS011;5393;48.728;9.140;2022-09-03T10:56:18;3.43;;;3.13;;
763;SDS011;5393;48.728;9.140;2022-09-03T11:02:19;3.80;;;3.40;;
763;SDS011;5393;48.728;9.140;2022-09-03T11:08:16;4.20;;;3.07;;
763;SDS011;5393;48.728;9.140;2022-09-03T11:11:09;3.40;;;3.10;;
763;SDS011;5393;48.728;9.140;2022-09-03T11:13:58;3.20;;;2.83;;
763;SDS011;5393;48.728;9.140;2022-09-03T11:16:46;3.50;;;2.97;;
763;SDS011;5393;48.728;9.140;2022-09-03T11:19:36;3.20;;;2.70;;
763;SDS011;5393;48.728;9.140;2022-09-03T11:22:22;3.40;;;3.00;;
763;SDS011;5393;48.728;9.140;2022-09-03T11:25:08;3.10;;;2.80;;
763;SDS011;5393;48.728;9.140;2022-09-03T11:33:32;4.00;;;3.13;;
763;SDS011;5393;48.728;9.140;2022-09-03T11:36:22;3.93;;;2.90;;
763;SDS011;5393;48.728;9.140;2022-09-03T11:39:23;2.97;;;2.70;;
763;SDS011;5393;48.728;9.140;2022-09-03T11:42:11;4.17;;;3.53;;
763;SDS011;5393;48.728;9.140;2022-09-03T11:45:11;5.87;;;3.70;;
763;SDS011;5393;48.728;9.140;2022-09-03T11:47:57;5.47;;;3.27;;
763;SDS011;5393;48.728;9.140;2022-09-03T11:50:50;3.17;;;2.87;;
763;SDS011;5393;48.728;9.140;2022-09-03T11:53:35;4.77;;;3.20;;
763;SDS011;5393;48.728;9.140;2022-09-03T11:56:20;2.93;;;2.50;;
763;SDS011;5393;48.728;9.140;2022-09-03T12:13:34;4.20;;;3.80;;
763;SDS011;5393;48.728;9.140;2022-09-03T12:22:14;4.00;;;3.43;;
763;SDS011;5393;48.728;9.140;2022-09-03T12:25:06;4.60;;;2.87;;
763;SDS011;5393;48.728;9.140;2022-09-03T12:27:51;3.57;;;2.50;;
763;SDS011;5393;48.728;9.140;2022-09-03T12:30:36;4.63;;;2.73;;
763;SDS011;5393;48.728;9.140;2022-09-03T12:33:21;3.33;;;2.30;;
763;SDS011;5393;48.728;9.140;2022-09-03T12:36:07;4.43;;;2.43;;
763;SDS011;5393;48.728;9.140;2022-09-03T12:38:52;2.30;;;1.83;;
763;SDS011;5393;48.728;9.140;2022-09-03T12:41:37;1.90;;;1.40;;
763;SDS011;5393;48.728;9.140;2022-09-03T12:47:20;3.30;;;1.90;;
763;SDS011;5393;48.728;9.140;2022-09-03T12:50:08;4.03;;;1.80;;
763;SDS011;5393;48.728;9.140;2022-09-03T12:52:54;3.27;;;2.40;;
763;SDS011;5393;48.728;9.140;2022-09-03T12:55:48;4.17;;;2.90;;
763;SDS011;5393;48.728;9.140;2022-09-03T13:01:24;4.43;;;2.03;;
763;SDS011;5393;48.728;9.140;2022-09-03T13:04:12;5.93;;;2.30;;
763;SDS011;5393;48.728;9.140;2022-09-03T13:07:00;3.80;;;2.13;;
763;SDS011;5393;48.728;9.140;2022-09-03T13:09:46;3.50;;;2.13;;
763;SDS011;5393;48.728;9.140;2022-09-03T13:12:32;3.83;;;2.60;;
763;SDS011;5393;48.728;9.140;2022-09-03T13:15:18;6.97;;;2.70;;
763;SDS011;5393;48.728;9.140;2022-09-03T13:21:01;3.17;;;2.30;;
763;SDS011;5393;48.728;9.140;2022-09-03T13:23:50;3.60;;;1.97;;
763;SDS011;5393;48.728;9.140;2022-09-03T13:26:59;4.07;;;2.00;;
763;SDS011;5393;48.728;9.140;2022-09-03T13:29:53;2.50;;;1.80;;
763;SDS011;5393;48.728;9.140;2022-09-03T13:35:46;2.40;;;1.60;;
763;SDS011;5393;48.728;9.140;2022-09-03T13:38:38;2.40;;;1.27;;
763;SDS011;5393;48.728;9.140;2022-09-03T13:44:17;3.33;;;1.53;;
763;SDS011;5393;48.728;9.140;2022-09-03T13:50:10;3.53;;;1.50;;
763;SDS011;5393;48.728;9.140;2022-09-03T13:55:55;3.10;;;1.53;;
763;SDS011;5393;48.728;9.140;2022-09-03T13:58:51;3.83;;;1.47;;
763;SDS011;5393;48.728;9.140;2022-09-03T14:04:24;3.60;;;1.60;;
763;SDS011;5393;48.728;9.140;2022-09-03T14:07:13;2.13;;;1.40;;
763;SDS011;5393;48.728;9.140;2022-09-03T14:10:09;2.03;;;1.37;;
763;SDS011;5393;48.728;9.140;2022-09-03T14:16:17;2.20;;;1.37;;
763;SDS011;5393;48.728;9.140;2022-09-03T14:19:04;1.93;;;1.40;;
763;SDS011;5393;48.728;9.140;2022-09-03T14:22:04;5.37;;;1.23;;
763;SDS011;5393;48.728;9.140;2022-09-03T14:24:51;1.97;;;1.43;;
763;SDS011;5393;48.728;9.140;2022-09-03T14:27:37;3.73;;;1.20;;
763;SDS011;5393;48.728;9.140;2022-09-03T14:39:11;1.80;;;1.00;;
763;SDS011;5393;48.728;9.140;2022-09-03T14:50:33;2.17;;;1.20;;
763;SDS011;5393;48.728;9.140;2022-09-03T14:56:28;1.73;;;1.03;;
763;SDS011;5393;48.728;9.140;2022-09-03T15:00:17;1.67;;;1.20;;
763;SDS011;5393;48.728;9.140;2022-09-03T15:05:27;1.73;;;1.27;;
763;SDS011;5393;48.728;9.140;2022-09-03T15:14:25;2.33;;;1.30;;
763;SDS011;5393;48.728;9.140;2022-09-03T15:23:08;2.03;;;1.17;;
763;SDS011;5393;48.728;9.140;2022-09-03T15:32:06;1.77;;;1.13;;
763;SDS011;5393;48.728;9.140;2022-09-03T15:37:45;3.10;;;1.40;;
763;SDS011;5393;48.728;9.140;2022-09-03T15:40:36;2.67;;;1.10;;
763;SDS011;5393;48.728;9.140;2022-09-03T15:43:30;1.80;;;1.37;;
763;SDS011;5393;48.728;9.140;2022-09-03T15:52:46;1.40;;;1.20;;
763;SDS011;5393;48.728;9.140;2022-09-03T15:55:38;2.80;;;1.40;;
763;SDS011;5393;48.728;9.140;2022-09-03T15:58:33;2.30;;;1.40;;
763;SDS011;5393;48.728;9.140;2022-09-03T16:01:27;1.83;;;1.60;;
763;SDS011;5393;48.728;9.140;2022-09-03T16:07:02;2.50;;;2.03;;
763;SDS011;5393;48.728;9.140;2022-09-03T16:16:03;2.23;;;1.70;;
763;SDS011;5393;48.728;9.140;2022-09-03T16:21:38;2.07;;;1.40;;
763;SDS011;5393;48.728;9.140;2022-09-03T16:27:41;2.10;;;1.67;;
763;SDS011;5393;48.728;9.140;2022-09-03T16:30:34;1.70;;;1.20;;
763;SDS011;5393;48.728;9.140;2022-09-03T16:39:11;1.53;;;1.13;;
763;SDS011;5393;48.728;9.140;2022-09-03T16:42:03;1.63;;;1.30;;
763;SDS011;5393;48.728;9.140;2022-09-03T16:45:12;1.70;;;1.33;;
763;SDS011;5393;48.728;9.140;2022-09-03T16:48:05;2.00;;;1.37;;
763;SDS011;5393;48.728;9.140;2022-09-03T16:57:00;2.13;;;1.93;;
763;SDS011;5393;48.728;9.140;2022-09-03T17:00:34;2.57;;;1.90;;
763;SDS011;5393;48.728;9.140;2022-09-03T17:05:58;2.17;;;1.43;;
763;SDS011;5393;48.728;9.140;2022-09-03T17:11:36;1.70;;;1.50;;
763;SDS011;5393;48.728;9.140;2022-09-03T17:29:29;2.37;;;1.80;;
763;SDS011;5393;48.728;9.140;2022-09-03T17:32:42;4.70;;;2.50;;
763;SDS011;5393;48.728;9.140;2022-09-03T17:35:37;2.60;;;1.97;;
763;SDS011;5393;48.728;9.140;2022-09-03T17:38:29;3.13;;;2.30;;
763;SDS011;5393;48.728;9.140;2022-09-03T17:49:45;2.27;;;1.97;;
763;SDS011;5393;48.728;9.140;2022-09-03T17:52:38;2.70;;;2.20;;
763;SDS011;5393;48.728;9.140;2022-09-03T17:55:35;2.50;;;1.87;;
763;SDS011;5393;48.728;9.140;2022-09-03T18:01:16;5.80;;;2.47;;
763;SDS011;5393;48.728;9.140;2022-09-03T18:04:51;3.20;;;2.63;;
763;SDS011;5393;48.728;9.140;2022-09-03T18:07:10;2.83;;;2.53;;
763;SDS011;5393;48.728;9.140;2022-09-03T18:10:18;3.00;;;2.70;;
763;SDS011;5393;48.728;9.140;2022-09-03T18:16:00;3.10;;;2.60;;
763;SDS011;5393;48.728;9.140;2022-09-03T18:18:50;4.20;;;2.67;;
763;SDS011;5393;48.728;9.140;2022-09-03T18:21:36;5.47;;;2.50;;
763;SDS011;5393;48.728;9.140;2022-09-03T18:24:46;3.80;;;2.40;;
763;SDS011;5393;48.728;9.140;2022-09-03T18:27:56;3.37;;;2.50;;
763;SDS011;5393;48.728;9.140;2022-09-03T18:31:00;3.87;;;2.23;;
763;SDS011;5393;48.728;9.140;2022-09-03T18:34:04;3.73;;;2.70;;
763;SDS011;5393;48.728;9.140;2022-09-03T18:37:07;3.73;;;2.50;;
763;SDS011;5393;48.728;9.140;2022-09-03T18:40:17;3.43;;;2.80;;
763;SDS011;5393;48.728;9.140;2022-09-03T18:43:34;4.70;;;3.00;;
763;SDS011;5393;48.728;9.140;2022-09-03T18:46:43;2.80;;;2.50;;
763;SDS011;5393;48.728;9.140;2022-09-03T18:54:03;3.40;;;2.40;;
763;SDS011;5393;48.728;9.140;2022-09-03T18:56:49;3.10;;;2.37;;
763;SDS011;5393;48.728;9.140;2022-09-03T19:00:04;4.53;;;3.33;;
763;SDS011;5393;48.728;9.140;2022-09-03T19:12:55;4.30;;;3.90;;
763;SDS011;5393;48.728;9.140;2022-09-03T19:16:04;4.60;;;4.07;;
763;SDS011;5393;48.728;9.140;2022-09-03T19:19:24;5.63;;;4.30;;
763;SDS011;5393;48.728;9.140;2022-09-03T19:22:34;5.33;;;4.50;;
763;SDS011;5393;48.728;9.140;2022-09-03T19:25:37;4.67;;;4.23;;
763;SDS011;5393;48.728;9.140;2022-09-03T19:28:41;4.60;;;4.00;;
763;SDS011;5393;48.728;9.140;2022-09-03T19:31:52;4.63;;;3.70;;
763;SDS011;5393;48.728;9.140;2022-09-03T19:35:14;6.07;;;3.80;;
763;SDS011;5393;48.728;9.140;2022-09-03T19:38:21;4.47;;;4.07;;
763;SDS011;5393;48.728;9.140;2022-09-03T19:42:01;4.50;;;4.07;;
763;SDS011;5393;48.728;9.140;2022-09-03T19:45:10;4.43;;;3.80;;
763;SDS011;5393;48.728;9.140;2022-09-03T19:51:39;4.93;;;4.00;;
763;SDS011;5393;48.728;9.140;2022-09-03T19:54:46;5.10;;;4.07;;
763;SDS011;5393;48.728;9.140;2022-09-03T19:57:53;3.73;;;3.33;;
763;SDS011;5393;48.728;9.140;2022-09-03T20:00:58;4.10;;;3.53;;
763;SDS011;5393;48.728;9.140;2022-09-03T20:04:12;4.63;;;3.70;;
763;SDS011;5393;48.728;9.140;2022-09-03T20:07:16;6.40;;;4.33;;
763;SDS011;5393;48.728;9.140;2022-09-03T20:10:20;4.60;;;3.57;;
763;SDS011;5393;48.728;9.140;2022-09-03T20:13:13;6.20;;;3.90;;
763;SDS011;5393;48.728;9.140;2022-09-03T20:18:48;5.17;;;4.17;;
763;SDS011;5393;48.728;9.140;2022-09-03T20:21:51;4.87;;;4.27;;
763;SDS011;5393;48.728;9.140;2022-09-03T20:30:45;5.13;;;4.57;;
763;SDS011;5393;48.728;9.140;2022-09-03T20:36:42;4.60;;;3.90;;
763;SDS011;5393;48.728;9.140;2022-09-03T20:39:34;6.43;;;4.53;;
763;SDS011;5393;48.728;9.140;2022-09-03T20:45:18;6.10;;;4.67;;
763;SDS011;5393;48.728;9.140;2022-09-03T20:50:57;7.07;;;4.50;;
763;SDS011;5393;48.728;9.140;2022-09-03T20:56:53;4.40;;;3.53;;
763;SDS011;5393;48.728;9.140;2022-09-03T21:02:35;5.13;;;3.67;;
763;SDS011;5393;48.728;9.140;2022-09-03T21:05:26;4.30;;;3.50;;
763;SDS011;5393;48.728;9.140;2022-09-03T21:13:52;3.40;;;3.10;;
763;SDS011;5393;48.728;9.140;2022-09-03T21:16:47;4.20;;;3.67;;
763;SDS011;5393;48.728;9.140;2022-09-03T21:28:21;6.40;;;4.30;;
763;SDS011;5393;48.728;9.140;2022-09-03T21:31:09;6.37;;;5.40;;
763;SDS011;5393;48.728;9.140;2022-09-03T21:33:58;8.13;;;7.33;;
763;SDS011;5393;48.728;9.140;2022-09-03T21:36:48;4.27;;;3.53;;
763;SDS011;5393;48.728;9.140;2022-09-03T21:39:36;5.10;;;3.73;;
763;SDS011;5393;48.728;9.140;2022-09-03T21:48:17;5.07;;;3.80;;
763;SDS011;5393;48.728;9.140;2022-09-03T21:51:12;8.30;;;7.30;;
763;SDS011;5393;48.728;9.140;2022-09-03T21:54:00;11.57;;;10.37;;
763;SDS011;5393;48.728;9.140;2022-09-03T21:56:54;5.63;;;4.67;;
763;SDS011;5393;48.728;9.140;2022-09-03T22:00:16;7.13;;;4.20;;
763;SDS011;5393;48.728;9.140;2022-09-03T22:02:53;4.73;;;3.50;;
763;SDS011;5393;48.728;9.140;2022-09-03T22:05:58;4.40;;;3.80;;
763;SDS011;5393;48.728;9.140;2022-09-03T22:08:54;6.33;;;5.73;;
763;SDS011;5393;48.728;9.140;2022-09-03T22:11:45;6.40;;;4.50;;
763;SDS011;5393;48.728;9.140;2022-09-03T22:14:40;4.83;;;3.60;;
763;SDS011;5393;48.728;9.140;2022-09-03T22:17:38;3.77;;;3.20;;
763;SDS011;5393;48.728;9.140;2022-09-03T22:20:26;3.63;;;3.27;;
763;SDS011;5393;48.728;9.140;2022-09-03T22:23:12;4.17;;;3.40;;
763;SDS011;5393;48.728;9.140;2022-09-03T22:26:02;6.53;;;3.33;;
763;SDS011;5393;48.728;9.140;2022-09-03T22:29:00;3.90;;;3.50;;
763;SDS011;5393;48.728;9.140;2022-09-03T22:37:39;4.73;;;3.07;;
763;SDS011;5393;48.728;9.140;2022-09-03T22:41:13;3.47;;;3.10;;
763;SDS011;5393;48.728;9.140;2022-09-03T22:43:40;4.80;;;3.87;;
763;SDS011;5393;48.728;9.140;2022-09-03T22:46:26;4.23;;;3.00;;
763;SDS011;5393;48.728;9.140;2022-09-03T22:55:06;5.23;;;3.20;;
763;SDS011;5393;48.728;9.140;2022-09-03T22:57:59;3.70;;;2.80;;
763;SDS011;5393;48.728;9.140;2022-09-03T23:00:47;5.00;;;3.03;;
763;SDS011;5393;48.728;9.140;2022-09-03T23:03:40;4.40;;;3.60;;
763;SDS011;5393;48.728;9.140;2022-09-03T23:06:29;3.63;;;3.27;;
763;SDS011;5393;48.728;9.140;2022-09-03T23:09:16;3.80;;;3.33;;
763;SDS011;5393;48.728;9.140;2022-09-03T23:12:08;3.60;;;2.73;;
763;SDS011;5393;48.728;9.140;2022-09-03T23:14:53;5.03;;;3.50;;
763;SDS011;5393;48.728;9.140;2022-09-03T23:17:42;4.80;;;3.63;;
763;SDS011;5393;48.728;9.140;2022-09-03T23:20:28;4.00;;;3.57;;
763;SDS011;5393;48.728;9.140;2022-09-03T23:23:19;3.67;;;3.37;;
763;SDS011;5393;48.728;9.140;2022-09-03T23:29:08;4.20;;;3.80;;
763;SDS011;5393;48.728;9.140;2022-09-03T23:31:55;3.73;;;3.30;;